sensor_id;sensor_type;location;lat;lon;timestamp;pressure;altitude;pressure_sealevel;temperature;humidity
7480;BME280;3781;42.272;22.658;2024-02-21T00:00:49;95073.56;;;6.12;97.04
7480;BME280;3781;42.272;22.658;2024-02-21T00:03:16;95035.69;;;5.99;98.43
7480;BME280;3781;42.272;22.658;2024-02-21T00:05:43;95078.69;;;6.26;98.26
7480;BME280;3781;42.272;22.658;2024-02-21T00:08:09;95080.25;;;6.28;98.17
7480;BME280;3781;42.272;22.658;2024-02-21T00:10:36;95078.69;;;6.26;98.54
7480;BME280;3781;42.272;22.658;2024-02-21T00:13:04;95055.16;;;6.18;98.31
7480;BME280;3781;42.272;22.658;2024-02-21T00:15:31;95050.19;;;6.15;97.59
7480;BME280;3781;42.272;22.658;2024-02-21T00:17:58;95027.78;;;5.88;97.78
7480;BME280;3781;42.272;22.658;2024-02-21T00:20:25;95038.44;;;5.96;98.36
7480;BME280;3781;42.272;22.658;2024-02-21T00:22:52;95032.31;;;5.85;100.00
7480;BME280;3781;42.272;22.658;2024-02-21T00:25:20;95061.00;;;5.93;100.00
7480;BME280;3781;42.272;22.658;2024-02-21T00:27:46;95041.41;;;5.90;100.00
7480;BME280;3781;42.272;22.658;2024-02-21T00:30:15;95059.88;;;6.11;97.57
7480;BME280;3781;42.272;22.658;2024-02-21T00:32:41;95060.09;;;6.21;95.49
7480;BME280;3781;42.272;22.658;2024-02-21T00:35:08;95065.91;;;6.24;99.42
7480;BME280;3781;42.272;22.658;2024-02-21T00:37:35;95068.97;;;6.17;100.00
7480;BME280;3781;42.272;22.658;2024-02-21T00:40:03;95058.53;;;5.91;100.00
7480;BME280;3781;42.272;22.658;2024-02-21T00:42:29;95048.59;;;5.57;100.00
7480;BME280;3781;42.272;22.658;2024-02-21T00:44:56;95066.91;;;5.53;100.00
7480;BME280;3781;42.272;22.658;2024-02-21T00:47:24;95063.13;;;5.44;100.00
7480;BME280;3781;42.272;22.658;2024-02-21T00:49:51;95058.38;;;5.38;100.00
7480;BME280;3781;42.272;22.658;2024-02-21T00:52:18;95024.34;;;5.19;100.00
7480;BME280;3781;42.272;22.658;2024-02-21T00:54:45;95062.59;;;5.39;100.00
7480;BME280;3781;42.272;22.658;2024-02-21T00:57:11;95060.56;;;5.44;100.00
7480;BME280;3781;42.272;22.658;2024-02-21T00:59:38;95053.00;;;5.55;100.00
7480;BME280;3781;42.272;22.658;2024-02-21T01:02:05;95033.53;;;5.51;100.00
7480;BME280;3781;42.272;22.658;2024-02-21T01:04:34;95068.44;;;5.83;100.00
7480;BME280;3781;42.272;22.658;2024-02-21T01:07:02;95067.34;;;5.87;100.00
7480;BME280;3781;42.272;22.658;2024-02-21T01:09:28;95058.53;;;5.91;100.00
7480;BME280;3781;42.272;22.658;2024-02-21T01:11:55;95069.91;;;6.01;100.00
7480;BME280;3781;42.272;22.658;2024-02-21T01:14:22;95054.50;;;6.14;100.00
7480;BME280;3781;42.272;22.658;2024-02-21T01:16:49;95050.00;;;6.18;100.00
7480;BME280;3781;42.272;22.658;2024-02-21T01:19:15;95028.09;;;6.11;100.00
7480;BME280;3781;42.272;22.658;2024-02-21T01:21:44;95047.75;;;6.26;97.67
7480;BME280;3781;42.272;22.658;2024-02-21T01:24:10;94945.63;;;5.70;96.67
7480;BME280;3781;42.272;22.658;2024-02-21T01:26:37;94986.69;;;5.99;96.29
7480;BME280;3781;42.272;22.658;2024-02-21T01:29:04;95037.22;;;6.29;96.56
7480;BME280;3781;42.272;22.658;2024-02-21T01:31:31;95029.97;;;6.21;97.64
7480;BME280;3781;42.272;22.658;2024-02-21T01:33:57;95015.94;;;6.13;97.16
7480;BME280;3781;42.272;22.658;2024-02-21T01:36:24;95001.03;;;6.03;97.10
7480;BME280;3781;42.272;22.658;2024-02-21T01:38:52;94991.09;;;5.85;98.56
7480;BME280;3781;42.272;22.658;2024-02-21T01:41:19;95030.19;;;5.91;100.00
7480;BME280;3781;42.272;22.658;2024-02-21T01:43:46;94999.94;;;5.53;100.00
7480;BME280;3781;42.272;22.658;2024-02-21T01:46:13;94973.59;;;5.21;100.00
7480;BME280;3781;42.272;22.658;2024-02-21T01:48:39;94987.81;;;5.26;100.00
7480;BME280;3781;42.272;22.658;2024-02-21T01:51:07;95018.69;;;5.55;100.00
7480;BME280;3781;42.272;22.658;2024-02-21T01:53:36;95020.88;;;5.75;100.00
7480;BME280;3781;42.272;22.658;2024-02-21T01:56:06;94994.66;;;5.68;98.94
7480;BME280;3781;42.272;22.658;2024-02-21T01:58:36;94990.97;;;5.72;98.48
7480;BME280;3781;42.272;22.658;2024-02-21T02:01:03;95012.19;;;5.63;100.00
7480;BME280;3781;42.272;22.658;2024-02-21T02:03:31;95025.41;;;5.57;100.00
7480;BME280;3781;42.272;22.658;2024-02-21T02:05:57;94988.00;;;5.52;100.00
7480;BME280;3781;42.272;22.658;2024-02-21T02:08:24;94976.84;;;5.51;100.00
7480;BME280;3781;42.272;22.658;2024-02-21T02:10:52;94980.88;;;5.55;100.00
7480;BME280;3781;42.272;22.658;2024-02-21T02:13:20;95013.03;;;5.76;100.00
7480;BME280;3781;42.272;22.658;2024-02-21T02:15:48;94948.34;;;5.40;100.00
7480;BME280;3781;42.272;22.658;2024-02-21T02:18:17;94996.50;;;5.66;100.00
7480;BME280;3781;42.272;22.658;2024-02-21T02:20:44;94999.81;;;5.68;100.00
7480;BME280;3781;42.272;22.658;2024-02-21T02:23:17;94979.03;;;5.71;100.00
7480;BME280;3781;42.272;22.658;2024-02-21T02:25:45;94942.44;;;5.52;100.00
7480;BME280;3781;42.272;22.658;2024-02-21T02:28:14;94971.81;;;5.76;100.00
7480;BME280;3781;42.272;22.658;2024-02-21T02:30:41;94995.41;;;5.84;100.00
7480;BME280;3781;42.272;22.658;2024-02-21T02:33:08;94968.66;;;5.59;100.00
7480;BME280;3781;42.272;22.658;2024-02-21T02:35:35;94996.94;;;5.73;100.00
7480;BME280;3781;42.272;22.658;2024-02-21T02:38:03;94985.56;;;5.63;100.00
7480;BME280;3781;42.272;22.658;2024-02-21T02:40:33;94972.09;;;5.45;100.00
7480;BME280;3781;42.272;22.658;2024-02-21T02:43:00;94958.31;;;5.32;100.00
7480;BME280;3781;42.272;22.658;2024-02-21T02:45:27;94993.03;;;5.53;100.00
7480;BME280;3781;42.272;22.658;2024-02-21T02:47:54;94999.31;;;5.49;100.00
7480;BME280;3781;42.272;22.658;2024-02-21T02:50:22;94933.50;;;5.03;100.00
7480;BME280;3781;42.272;22.658;2024-02-21T02:52:49;94978.72;;;5.21;100.00
7480;BME280;3781;42.272;22.658;2024-02-21T02:55:16;94998.88;;;5.14;100.00
7480;BME280;3781;42.272;22.658;2024-02-21T02:57:44;95005.22;;;5.09;100.00
7480;BME280;3781;42.272;22.658;2024-02-21T03:00:12;94988.84;;;4.82;100.00
7480;BME280;3781;42.272;22.658;2024-02-21T03:02:41;95010.47;;;4.93;100.00
7480;BME280;3781;42.272;22.658;2024-02-21T03:05:13;95008.69;;;4.94;100.00
7480;BME280;3781;42.272;22.658;2024-02-21T03:07:41;95009.31;;;4.83;100.00
7480;BME280;3781;42.272;22.658;2024-02-21T03:10:08;95002.78;;;4.64;100.00
7480;BME280;3781;42.272;22.658;2024-02-21T03:12:35;95015.09;;;4.58;100.00
7480;BME280;3781;42.272;22.658;2024-02-21T03:15:04;95015.09;;;4.58;100.00
7480;BME280;3781;42.272;22.658;2024-02-21T03:17:31;95017.44;;;4.47;100.00
7480;BME280;3781;42.272;22.658;2024-02-21T03:19:59;94992.56;;;4.48;100.00
7480;BME280;3781;42.272;22.658;2024-02-21T03:22:26;95021.25;;;4.70;100.00
7480;BME280;3781;42.272;22.658;2024-02-21T03:24:53;95020.81;;;4.78;100.00
7480;BME280;3781;42.272;22.658;2024-02-21T03:27:20;95025.75;;;4.67;100.00
7480;BME280;3781;42.272;22.658;2024-02-21T03:29:47;95009.38;;;4.53;100.00
7480;BME280;3781;42.272;22.658;2024-02-21T03:32:15;94998.72;;;4.45;100.00
7480;BME280;3781;42.272;22.658;2024-02-21T03:34:42;95011.00;;;4.40;100.00
7480;BME280;3781;42.272;22.658;2024-02-21T03:37:08;95008.72;;;4.20;100.00
7480;BME280;3781;42.272;22.658;2024-02-21T03:39:35;95014.34;;;4.27;100.00
7480;BME280;3781;42.272;22.658;2024-02-21T03:42:03;95002.75;;;4.20;100.00
7480;BME280;3781;42.272;22.658;2024-02-21T03:44:30;95005.50;;;4.17;100.00
7480;BME280;3781;42.272;22.658;2024-02-21T03:46:57;95024.59;;;4.13;100.00
7480;BME280;3781;42.272;22.658;2024-02-21T03:49:25;95025.19;;;4.02;100.00
7480;BME280;3781;42.272;22.658;2024-02-21T03:51:52;94998.19;;;3.79;100.00
7480;BME280;3781;42.272;22.658;2024-02-21T03:54:19;94984.94;;;3.71;100.00
7480;BME280;3781;42.272;22.658;2024-02-21T03:56:47;94997.78;;;3.87;100.00
7480;BME280;3781;42.272;22.658;2024-02-21T03:59:14;95027.97;;;4.13;100.00
7480;BME280;3781;42.272;22.658;2024-02-21T04:01:41;95028.94;;;4.26;100.00
7480;BME280;3781;42.272;22.658;2024-02-21T04:04:07;94960.38;;;3.97;100.00
7480;BME280;3781;42.272;22.658;2024-02-21T04:06:36;95032.94;;;4.46;100.00
7480;BME280;3781;42.272;22.658;2024-02-21T04:09:02;95026.78;;;4.34;100.00
7480;BME280;3781;42.272;22.658;2024-02-21T04:11:30;95037.22;;;4.31;100.00
7480;BME280;3781;42.272;22.658;2024-02-21T04:13:56;95010.06;;;4.12;100.00
7480;BME280;3781;42.272;22.658;2024-02-21T04:16:23;95032.66;;;4.36;100.00
7480;BME280;3781;42.272;22.658;2024-02-21T04:18:50;95004.06;;;4.27;100.00
7480;BME280;3781;42.272;22.658;2024-02-21T04:21:17;95036.66;;;4.56;100.00
7480;BME280;3781;42.272;22.658;2024-02-21T04:23:46;95033.47;;;4.67;100.00
7480;BME280;3781;42.272;22.658;2024-02-21T04:26:12;95001.75;;;4.52;100.00
7480;BME280;3781;42.272;22.658;2024-02-21T04:28:39;95027.13;;;4.72;100.00
7480;BME280;3781;42.272;22.658;2024-02-21T04:31:06;94992.09;;;4.55;100.00
7480;BME280;3781;42.272;22.658;2024-02-21T04:33:33;95010.25;;;4.82;100.00
7480;BME280;3781;42.272;22.658;2024-02-21T04:36:00;95029.94;;;5.11;100.00
7480;BME280;3781;42.272;22.658;2024-02-21T04:38:27;95012.19;;;4.93;100.00
7480;BME280;3781;42.272;22.658;2024-02-21T04:40:56;95029.09;;;4.97;100.00
7480;BME280;3781;42.272;22.658;2024-02-21T04:43:24;95032.75;;;4.79;100.00
7480;BME280;3781;42.272;22.658;2024-02-21T04:45:51;95000.66;;;4.26;100.00
7480;BME280;3781;42.272;22.658;2024-02-21T04:48:19;95001.97;;;3.88;100.00
7480;BME280;3781;42.272;22.658;2024-02-21T04:50:46;94964.81;;;3.48;100.00
7480;BME280;3781;42.272;22.658;2024-02-21T04:53:12;95028.41;;;3.74;100.00
7480;BME280;3781;42.272;22.658;2024-02-21T04:55:39;94982.28;;;3.57;100.00
7480;BME280;3781;42.272;22.658;2024-02-21T04:58:07;94987.25;;;3.76;100.00
7480;BME280;3781;42.272;22.658;2024-02-21T05:00:33;95048.75;;;4.24;100.00
7480;BME280;3781;42.272;22.658;2024-02-21T05:03:00;95023.16;;;4.23;100.00
7480;BME280;3781;42.272;22.658;2024-02-21T05:05:27;94974.66;;;3.87;100.00
7480;BME280;3781;42.272;22.658;2024-02-21T05:07:54;94998.16;;;3.95;100.00
7480;BME280;3781;42.272;22.658;2024-02-21T05:10:21;95025.84;;;4.06;100.00
7480;BME280;3781;42.272;22.658;2024-02-21T05:12:48;95011.16;;;4.08;100.00
7480;BME280;3781;42.272;22.658;2024-02-21T05:15:16;95048.47;;;4.44;100.00
7480;BME280;3781;42.272;22.658;2024-02-21T05:17:43;95048.78;;;4.54;100.00
7480;BME280;3781;42.272;22.658;2024-02-21T05:20:10;95040.00;;;4.42;100.00
7480;BME280;3781;42.272;22.658;2024-02-21T05:22:37;94963.84;;;3.96;100.00
7480;BME280;3781;42.272;22.658;2024-02-21T05:25:05;95045.28;;;4.55;100.00
7480;BME280;3781;42.272;22.658;2024-02-21T05:27:32;95016.28;;;4.37;100.00
7480;BME280;3781;42.272;22.658;2024-02-21T05:29:58;94974.19;;;4.24;100.00
7480;BME280;3781;42.272;22.658;2024-02-21T05:32:27;95047.97;;;4.68;100.00
7480;BME280;3781;42.272;22.658;2024-02-21T05:34:53;95048.03;;;4.82;100.00
7480;BME280;3781;42.272;22.658;2024-02-21T05:37:20;95039.88;;;4.59;100.00
7480;BME280;3781;42.272;22.658;2024-02-21T05:39:47;95048.69;;;4.55;100.00
7480;BME280;3781;42.272;22.658;2024-02-21T05:42:14;95012.34;;;4.32;100.00
7480;BME280;3781;42.272;22.658;2024-02-21T05:44:41;94891.81;;;3.68;100.00
7480;BME280;3781;42.272;22.658;2024-02-21T05:47:08;95065.94;;;4.83;100.00
7480;BME280;3781;42.272;22.658;2024-02-21T05:49:37;95011.94;;;4.53;100.00
7480;BME280;3781;42.272;22.658;2024-02-21T05:52:04;95034.00;;;4.57;100.00
7480;BME280;3781;42.272;22.658;2024-02-21T05:54:31;95076.41;;;4.80;100.00
7480;BME280;3781;42.272;22.658;2024-02-21T05:56:58;95063.34;;;4.69;100.00
7480;BME280;3781;42.272;22.658;2024-02-21T05:59:25;95093.97;;;4.88;100.00
7480;BME280;3781;42.272;22.658;2024-02-21T06:01:56;95100.97;;;4.86;100.00
7480;BME280;3781;42.272;22.658;2024-02-21T06:04:23;95095.78;;;4.72;100.00
7480;BME280;3781;42.272;22.658;2024-02-21T06:06:51;95035.97;;;4.38;100.00
7480;BME280;3781;42.272;22.658;2024-02-21T06:09:18;95059.50;;;4.46;100.00
7480;BME280;3781;42.272;22.658;2024-02-21T06:11:45;95098.00;;;4.78;100.00
7480;BME280;3781;42.272;22.658;2024-02-21T06:14:14;95093.25;;;4.86;100.00
7480;BME280;3781;42.272;22.658;2024-02-21T06:16:40;95090.03;;;4.82;100.00
7480;BME280;3781;42.272;22.658;2024-02-21T06:19:07;95114.19;;;4.94;100.00
7480;BME280;3781;42.272;22.658;2024-02-21T06:21:34;95109.81;;;4.96;100.00
7480;BME280;3781;42.272;22.658;2024-02-21T06:24:03;95104.69;;;4.96;100.00
7480;BME280;3781;42.272;22.658;2024-02-21T06:26:29;95097.75;;;4.96;100.00
7480;BME280;3781;42.272;22.658;2024-02-21T06:28:56;94992.94;;;4.26;100.00
7480;BME280;3781;42.272;22.658;2024-02-21T06:31:25;95075.09;;;4.73;100.00
7480;BME280;3781;42.272;22.658;2024-02-21T06:33:51;95116.25;;;5.03;100.00
7480;BME280;3781;42.272;22.658;2024-02-21T06:36:18;95098.03;;;4.92;100.00
7480;BME280;3781;42.272;22.658;2024-02-21T06:38:45;95109.06;;;4.94;100.00
7480;BME280;3781;42.272;22.658;2024-02-21T06:41:16;95123.97;;;5.03;100.00
7480;BME280;3781;42.272;22.658;2024-02-21T06:43:44;95123.66;;;5.09;100.00
7480;BME280;3781;42.272;22.658;2024-02-21T06:46:11;95122.28;;;5.17;100.00
7480;BME280;3781;42.272;22.658;2024-02-21T06:48:38;95078.56;;;5.16;100.00
7480;BME280;3781;42.272;22.658;2024-02-21T06:51:04;95124.78;;;5.47;100.00
7480;BME280;3781;42.272;22.658;2024-02-21T06:53:31;95123.88;;;5.62;100.00
7480;BME280;3781;42.272;22.658;2024-02-21T06:55:58;95116.31;;;5.73;100.00
7480;BME280;3781;42.272;22.658;2024-02-21T06:58:26;95094.59;;;5.77;100.00
7480;BME280;3781;42.272;22.658;2024-02-21T07:00:53;95133.97;;;6.22;100.00
7480;BME280;3781;42.272;22.658;2024-02-21T07:03:20;95130.34;;;6.38;100.00
7480;BME280;3781;42.272;22.658;2024-02-21T07:05:47;95128.53;;;6.53;100.00
7480;BME280;3781;42.272;22.658;2024-02-21T07:08:13;95123.91;;;6.58;99.75
7480;BME280;3781;42.272;22.658;2024-02-21T07:10:40;95132.13;;;6.77;99.08
7480;BME280;3781;42.272;22.658;2024-02-21T07:13:07;95057.63;;;6.46;95.83
7480;BME280;3781;42.272;22.658;2024-02-21T07:15:35;95118.34;;;7.03;95.50
7480;BME280;3781;42.272;22.658;2024-02-21T07:18:03;95122.94;;;7.12;94.44
7480;BME280;3781;42.272;22.658;2024-02-21T07:20:30;95119.75;;;7.21;92.77
7480;BME280;3781;42.272;22.658;2024-02-21T07:22:59;95107.25;;;7.15;92.05
7480;BME280;3781;42.272;22.658;2024-02-21T07:25:25;95087.78;;;7.10;89.60
7480;BME280;3781;42.272;22.658;2024-02-21T07:27:52;95109.31;;;7.35;90.98
7480;BME280;3781;42.272;22.658;2024-02-21T07:30:19;94888.44;;;6.04;89.69
7480;BME280;3781;42.272;22.658;2024-02-21T07:32:50;95028.69;;;7.05;88.33
7480;BME280;3781;42.272;22.658;2024-02-21T07:35:20;94971.03;;;7.42;87.29
7480;BME280;3781;42.272;22.658;2024-02-21T07:37:49;94906.03;;;8.98;77.00
7480;BME280;3781;42.272;22.658;2024-02-21T07:40:17;95114.03;;;12.13;66.47
7480;BME280;3781;42.272;22.658;2024-02-21T07:42:44;95104.66;;;13.56;58.33
7480;BME280;3781;42.272;22.658;2024-02-21T07:45:11;95080.25;;;14.21;54.46
7480;BME280;3781;42.272;22.658;2024-02-21T07:47:43;95055.41;;;14.45;51.54
7480;BME280;3781;42.272;22.658;2024-02-21T07:50:11;95044.78;;;14.73;51.11
7480;BME280;3781;42.272;22.658;2024-02-21T07:52:43;95021.47;;;14.97;48.97
7480;BME280;3781;42.272;22.658;2024-02-21T07:55:10;95135.47;;;15.96;48.04
7480;BME280;3781;42.272;22.658;2024-02-21T07:57:37;95112.06;;;15.77;47.04
7480;BME280;3781;42.272;22.658;2024-02-21T08:00:05;95137.31;;;16.04;46.71
7480;BME280;3781;42.272;22.658;2024-02-21T08:02:39;95002.16;;;14.98;46.84
7480;BME280;3781;42.272;22.658;2024-02-21T08:05:06;95044.59;;;15.28;46.43
7480;BME280;3781;42.272;22.658;2024-02-21T08:07:34;94976.28;;;14.70;46.43
7480;BME280;3781;42.272;22.658;2024-02-21T08:10:01;95019.00;;;15.57;45.46
7480;BME280;3781;42.272;22.658;2024-02-21T08:12:29;95064.81;;;16.12;44.00
7480;BME280;3781;42.272;22.658;2024-02-21T08:14:56;95127.53;;;16.14;44.38
7480;BME280;3781;42.272;22.658;2024-02-21T08:17:22;95120.06;;;15.50;45.38
7480;BME280;3781;42.272;22.658;2024-02-21T08:19:49;95064.44;;;15.73;44.95
7480;BME280;3781;42.272;22.658;2024-02-21T08:22:16;95144.13;;;17.40;42.51
7480;BME280;3781;42.272;22.658;2024-02-21T08:24:44;95130.63;;;18.31;41.07
7480;BME280;3781;42.272;22.658;2024-02-21T08:27:11;95133.66;;;19.36;38.65
7480;BME280;3781;42.272;22.658;2024-02-21T08:29:38;95140.91;;;20.02;37.50
7480;BME280;3781;42.272;22.658;2024-02-21T08:32:05;95136.25;;;20.42;35.78
7480;BME280;3781;42.272;22.658;2024-02-21T08:34:32;95138.50;;;20.88;35.23
7480;BME280;3781;42.272;22.658;2024-02-21T08:36:59;95124.59;;;21.09;33.99
7480;BME280;3781;42.272;22.658;2024-02-21T08:39:26;95068.66;;;21.06;33.83
7480;BME280;3781;42.272;22.658;2024-02-21T08:41:55;95113.06;;;20.37;34.44
7480;BME280;3781;42.272;22.658;2024-02-21T08:44:22;95113.53;;;18.82;36.90
7480;BME280;3781;42.272;22.658;2024-02-21T08:46:51;95133.31;;;17.59;38.26
7480;BME280;3781;42.272;22.658;2024-02-21T08:49:18;95126.69;;;16.65;40.24
7480;BME280;3781;42.272;22.658;2024-02-21T08:51:44;95107.19;;;15.56;42.43
7480;BME280;3781;42.272;22.658;2024-02-21T08:54:12;95100.81;;;14.88;43.57
7480;BME280;3781;42.272;22.658;2024-02-21T08:56:38;95137.44;;;14.34;44.78
7480;BME280;3781;42.272;22.658;2024-02-21T08:59:07;95120.84;;;13.70;46.26
7480;BME280;3781;42.272;22.658;2024-02-21T09:01:33;95135.41;;;13.53;47.50
7480;BME280;3781;42.272;22.658;2024-02-21T09:04:00;95104.19;;;14.17;46.16
7480;BME280;3781;42.272;22.658;2024-02-21T09:06:28;95110.97;;;14.10;45.21
7480;BME280;3781;42.272;22.658;2024-02-21T09:08:56;95135.38;;;14.28;45.90
7480;BME280;3781;42.272;22.658;2024-02-21T09:11:23;95126.44;;;14.21;45.63
7480;BME280;3781;42.272;22.658;2024-02-21T09:13:50;95108.97;;;13.85;45.89
7480;BME280;3781;42.272;22.658;2024-02-21T09:16:18;95093.06;;;13.69;45.96
7480;BME280;3781;42.272;22.658;2024-02-21T09:18:45;95135.31;;;14.01;46.60
7480;BME280;3781;42.272;22.658;2024-02-21T09:21:12;95130.97;;;13.92;47.48
7480;BME280;3781;42.272;22.658;2024-02-21T09:23:39;95123.56;;;13.87;47.70
7480;BME280;3781;42.272;22.658;2024-02-21T09:26:06;95135.66;;;13.69;47.11
7480;BME280;3781;42.272;22.658;2024-02-21T09:28:33;95114.56;;;13.43;47.52
7480;BME280;3781;42.272;22.658;2024-02-21T09:31:00;95123.63;;;13.39;47.66
7480;BME280;3781;42.272;22.658;2024-02-21T09:33:28;95127.38;;;12.59;48.35
7480;BME280;3781;42.272;22.658;2024-02-21T09:35:55;95118.78;;;12.38;49.73
7480;BME280;3781;42.272;22.658;2024-02-21T09:38:22;95125.34;;;12.32;50.47
7480;BME280;3781;42.272;22.658;2024-02-21T09:40:54;95105.03;;;13.61;47.37
7480;BME280;3781;42.272;22.658;2024-02-21T09:43:25;95124.66;;;13.85;45.24
7480;BME280;3781;42.272;22.658;2024-02-21T09:45:55;95116.59;;;13.40;46.46
7480;BME280;3781;42.272;22.658;2024-02-21T09:48:42;95120.44;;;12.98;47.40
7480;BME280;3781;42.272;22.658;2024-02-21T09:51:15;95121.69;;;13.41;47.62
7480;BME280;3781;42.272;22.658;2024-02-21T09:53:43;95119.28;;;14.23;46.02
7480;BME280;3781;42.272;22.658;2024-02-21T09:56:11;95077.72;;;14.39;44.67
7480;BME280;3781;42.272;22.658;2024-02-21T09:58:39;95113.38;;;15.38;43.56
7480;BME280;3781;42.272;22.658;2024-02-21T10:01:06;95106.75;;;15.26;42.33
7480;BME280;3781;42.272;22.658;2024-02-21T10:03:35;95101.84;;;14.51;43.10
7480;BME280;3781;42.272;22.658;2024-02-21T10:06:02;95109.56;;;14.52;44.00
7480;BME280;3781;42.272;22.658;2024-02-21T10:08:29;95084.50;;;13.86;44.34
7480;BME280;3781;42.272;22.658;2024-02-21T10:10:56;95102.50;;;14.35;43.70
7480;BME280;3781;42.272;22.658;2024-02-21T10:13:26;95096.88;;;14.57;44.28
7480;BME280;3781;42.272;22.658;2024-02-21T10:16:03;95064.22;;;14.44;42.65
7480;BME280;3781;42.272;22.658;2024-02-21T10:18:30;95100.94;;;14.69;42.03
7480;BME280;3781;42.272;22.658;2024-02-21T10:21:03;95095.44;;;14.72;42.38
7480;BME280;3781;42.272;22.658;2024-02-21T10:23:41;95076.16;;;14.73;42.62
7480;BME280;3781;42.272;22.658;2024-02-21T10:26:09;95048.75;;;14.32;41.02
7480;BME280;3781;42.272;22.658;2024-02-21T10:28:36;95051.81;;;13.82;41.80
7480;BME280;3781;42.272;22.658;2024-02-21T10:31:07;95084.03;;;13.63;42.92
7480;BME280;3781;42.272;22.658;2024-02-21T10:33:34;95073.78;;;13.33;43.10
7480;BME280;3781;42.272;22.658;2024-02-21T10:36:09;95043.72;;;12.71;43.46
7480;BME280;3781;42.272;22.658;2024-02-21T10:38:37;95076.38;;;13.14;43.94
7480;BME280;3781;42.272;22.658;2024-02-21T10:41:04;95019.16;;;13.03;44.05
7480;BME280;3781;42.272;22.658;2024-02-21T10:43:37;95067.69;;;13.51;44.90
7480;BME280;3781;42.272;22.658;2024-02-21T10:46:06;95041.00;;;14.04;42.92
7480;BME280;3781;42.272;22.658;2024-02-21T10:48:41;95035.03;;;14.48;41.48
7480;BME280;3781;42.272;22.658;2024-02-21T10:51:15;95044.53;;;15.20;39.71
7480;BME280;3781;42.272;22.658;2024-02-21T10:53:45;95016.56;;;14.32;40.46
7480;BME280;3781;42.272;22.658;2024-02-21T10:56:22;95040.81;;;15.04;40.10
7480;BME280;3781;42.272;22.658;2024-02-21T10:58:52;94910.91;;;14.17;39.35
7480;BME280;3781;42.272;22.658;2024-02-21T11:01:20;95017.66;;;14.57;39.77
7480;BME280;3781;42.272;22.658;2024-02-21T11:03:51;95034.81;;;14.94;39.68
7480;BME280;3781;42.272;22.658;2024-02-21T11:06:21;95025.78;;;14.71;39.93
7480;BME280;3781;42.272;22.658;2024-02-21T11:09:00;95029.81;;;14.48;39.96
7480;BME280;3781;42.272;22.658;2024-02-21T11:11:28;95020.16;;;14.49;40.70
7480;BME280;3781;42.272;22.658;2024-02-21T11:14:04;95021.25;;;14.91;40.34
7480;BME280;3781;42.272;22.658;2024-02-21T11:16:35;95017.03;;;15.16;39.93
7480;BME280;3781;42.272;22.658;2024-02-21T11:19:06;95007.41;;;14.98;40.24
7480;BME280;3781;42.272;22.658;2024-02-21T11:21:35;95006.66;;;14.53;39.81
7480;BME280;3781;42.272;22.658;2024-02-21T11:24:02;94959.94;;;14.50;40.37
7480;BME280;3781;42.272;22.658;2024-02-21T11:26:30;94982.91;;;14.82;39.92
7480;BME280;3781;42.272;22.658;2024-02-21T11:28:58;94996.72;;;14.92;39.45
7480;BME280;3781;42.272;22.658;2024-02-21T11:31:25;94971.88;;;14.35;40.38
7480;BME280;3781;42.272;22.658;2024-02-21T11:33:53;94985.63;;;14.27;40.74
7480;BME280;3781;42.272;22.658;2024-02-21T11:36:27;95000.19;;;13.29;41.91
7480;BME280;3781;42.272;22.658;2024-02-21T11:39:03;94992.69;;;12.69;44.59
7480;BME280;3781;42.272;22.658;2024-02-21T11:41:30;94990.75;;;12.52;44.76
7480;BME280;3781;42.272;22.658;2024-02-21T11:43:57;94995.53;;;12.47;44.94
7480;BME280;3781;42.272;22.658;2024-02-21T11:46:24;94973.03;;;12.27;45.13
7480;BME280;3781;42.272;22.658;2024-02-21T11:48:51;94922.84;;;11.86;44.66
7480;BME280;3781;42.272;22.658;2024-02-21T11:51:25;94984.69;;;12.23;45.39
7480;BME280;3781;42.272;22.658;2024-02-21T11:53:52;94972.63;;;12.02;44.69
7480;BME280;3781;42.272;22.658;2024-02-21T11:56:20;94909.25;;;11.73;45.33
7480;BME280;3781;42.272;22.658;2024-02-21T11:58:48;94975.94;;;12.24;45.04
7480;BME280;3781;42.272;22.658;2024-02-21T12:01:15;94925.19;;;11.89;44.88
7480;BME280;3781;42.272;22.658;2024-02-21T12:03:42;94926.25;;;11.77;45.24
7480;BME280;3781;42.272;22.658;2024-02-21T12:06:15;94984.59;;;11.84;45.99
7480;BME280;3781;42.272;22.658;2024-02-21T12:08:45;94854.41;;;10.76;46.46
7480;BME280;3781;42.272;22.658;2024-02-21T12:11:22;94955.31;;;11.22;46.85
7480;BME280;3781;42.272;22.658;2024-02-21T12:14:00;94864.13;;;10.53;47.17
7480;BME280;3781;42.272;22.658;2024-02-21T12:16:29;94970.38;;;11.28;47.77
7480;BME280;3781;42.272;22.658;2024-02-21T12:18:56;94946.09;;;11.18;48.08
7480;BME280;3781;42.272;22.658;2024-02-21T12:21:26;94951.41;;;11.07;47.98
7480;BME280;3781;42.272;22.658;2024-02-21T12:23:54;94965.50;;;11.14;47.76
7480;BME280;3781;42.272;22.658;2024-02-21T12:26:23;94958.59;;;11.24;47.27
7480;BME280;3781;42.272;22.658;2024-02-21T12:28:50;94959.38;;;11.45;47.41
7480;BME280;3781;42.272;22.658;2024-02-21T12:31:16;94958.16;;;11.49;47.88
7480;BME280;3781;42.272;22.658;2024-02-21T12:33:43;94964.75;;;11.53;47.04
7480;BME280;3781;42.272;22.658;2024-02-21T12:36:10;94898.91;;;10.92;47.85
7480;BME280;3781;42.272;22.658;2024-02-21T12:38:37;94846.19;;;10.71;48.65
7480;BME280;3781;42.272;22.658;2024-02-21T12:41:04;94906.41;;;11.16;47.58
7480;BME280;3781;42.272;22.658;2024-02-21T12:43:34;94930.09;;;11.13;48.68
7480;BME280;3781;42.272;22.658;2024-02-21T12:46:01;94922.63;;;10.99;48.69
7480;BME280;3781;42.272;22.658;2024-02-21T12:48:27;94945.63;;;11.03;49.06
7480;BME280;3781;42.272;22.658;2024-02-21T12:50:54;94863.25;;;10.43;49.28
7480;BME280;3781;42.272;22.658;2024-02-21T12:53:21;94925.19;;;10.69;49.68
7480;BME280;3781;42.272;22.658;2024-02-21T12:55:48;94940.00;;;10.78;50.19
7480;BME280;3781;42.272;22.658;2024-02-21T12:58:15;94902.88;;;10.45;49.83
7480;BME280;3781;42.272;22.658;2024-02-21T13:00:43;94883.47;;;10.29;49.83
7480;BME280;3781;42.272;22.658;2024-02-21T13:03:11;94900.16;;;10.47;50.13
7480;BME280;3781;42.272;22.658;2024-02-21T13:05:38;94924.03;;;10.61;49.81
7480;BME280;3781;42.272;22.658;2024-02-21T13:08:05;94929.22;;;10.61;49.99
7480;BME280;3781;42.272;22.658;2024-02-21T13:10:32;94923.38;;;10.90;49.68
7480;BME280;3781;42.272;22.658;2024-02-21T13:13:00;94869.25;;;10.65;51.27
7480;BME280;3781;42.272;22.658;2024-02-21T13:15:26;94914.09;;;11.17;50.12